createdAt,value
2023-04-16T00:00:46.529Z,85.00
2023-04-16T00:03:13.678Z,85.00
2023-04-16T00:05:40.734Z,84.80
2023-04-16T00:08:07.722Z,84.70
2023-04-16T00:10:37.643Z,84.80
2023-04-16T00:13:04.577Z,85.00
2023-04-16T00:15:31.508Z,84.70
2023-04-16T00:17:58.456Z,84.30
2023-04-16T00:20:25.480Z,84.80
2023-04-16T00:22:52.400Z,83.50
2023-04-16T00:25:21.729Z,83.50
2023-04-16T00:27:50.932Z,83.90
2023-04-16T00:30:20.061Z,84.50
2023-04-16T00:32:49.474Z,84.70
2023-04-16T00:35:19.115Z,84.70
2023-04-16T00:37:46.088Z,84.70
2023-04-16T00:40:15.409Z,84.60
2023-04-16T00:42:45.630Z,84.70
2023-04-16T00:45:12.783Z,85.10
2023-04-16T00:47:39.833Z,85.30
2023-04-16T00:50:12.432Z,85.00
2023-04-16T00:52:41.649Z,84.70
2023-04-16T00:55:13.228Z,84.70
2023-04-16T00:57:40.399Z,85.00
2023-04-16T01:00:08.698Z,85.10
2023-04-16T01:02:40.423Z,85.00
2023-04-16T01:05:08.525Z,84.90
2023-04-16T01:07:35.763Z,85.10
2023-04-16T01:10:05.540Z,85.00
2023-04-16T01:12:37.810Z,85.10
2023-04-16T01:15:05.209Z,85.40
2023-04-16T01:17:32.194Z,84.70
2023-04-16T01:20:01.535Z,85.00
2023-04-16T01:22:29.241Z,84.90
2023-04-16T01:24:56.162Z,85.00
2023-04-16T01:27:23.679Z,85.00
2023-04-16T01:29:56.337Z,85.20
2023-04-16T01:32:33.768Z,85.10
2023-04-16T01:35:00.688Z,85.50
2023-04-16T01:37:27.621Z,85.50
2023-04-16T01:39:54.610Z,85.50
2023-04-16T01:42:21.542Z,85.50
2023-04-16T01:44:49.660Z,85.60
2023-04-16T01:47:19.098Z,85.10
2023-04-16T01:49:48.243Z,84.70
2023-04-16T01:52:17.399Z,85.40
2023-04-16T01:54:44.348Z,85.50
2023-04-16T01:57:11.330Z,85.50
2023-04-16T01:59:38.322Z,85.20
2023-04-16T02:02:11.460Z,85.10
2023-04-16T02:04:39.813Z,85.20
2023-04-16T02:07:09.828Z,85.30
2023-04-16T02:09:42.611Z,85.20
2023-04-16T02:12:14.220Z,85.30
2023-04-16T02:14:43.270Z,85.40
2023-04-16T02:17:12.525Z,85.40
2023-04-16T02:19:43.134Z,85.30
2023-04-16T02:22:12.716Z,85.30
2023-04-16T02:24:41.942Z,85.40
2023-04-16T02:27:10.491Z,85.20
2023-04-16T02:29:43.589Z,85.50
2023-04-16T02:32:15.093Z,85.50
2023-04-16T02:34:45.172Z,85.70
2023-04-16T02:37:19.113Z,85.50
2023-04-16T02:39:47.460Z,85.50
2023-04-16T02:42:14.708Z,85.70
2023-04-16T02:44:41.888Z,85.50
2023-04-16T02:47:14.153Z,85.50
2023-04-16T02:49:45.801Z,85.40
2023-04-16T02:52:14.951Z,85.10
2023-04-16T02:54:42.489Z,85.30
2023-04-16T02:57:09.831Z,84.80
2023-04-16T02:59:36.770Z,85.10
2023-04-16T03:02:03.950Z,84.70
2023-04-16T03:04:31.070Z,84.80
2023-04-16T03:06:58.008Z,84.90
2023-04-16T03:09:24.922Z,84.70
2023-04-16T03:11:52.015Z,84.90
2023-04-16T03:14:21.549Z,84.90
2023-04-16T03:16:48.453Z,84.50
2023-04-16T03:19:15.497Z,84.70
2023-04-16T03:21:44.993Z,84.60
2023-04-16T03:24:11.940Z,84.80
2023-04-16T03:26:43.573Z,84.90
2023-04-16T03:29:13.539Z,84.90
2023-04-16T03:31:41.552Z,85.00
2023-04-16T03:34:08.606Z,85.00
2023-04-16T03:36:36.024Z,84.90
2023-04-16T03:39:07.960Z,85.10
2023-04-16T03:41:40.873Z,85.00
2023-04-16T03:44:07.839Z,85.00
2023-04-16T03:46:34.840Z,84.90
2023-04-16T03:49:01.807Z,84.70
2023-04-16T03:51:33.724Z,84.40
2023-04-16T03:54:00.812Z,84.70
2023-04-16T03:56:28.646Z,84.80
2023-04-16T03:59:01.256Z,84.60
2023-04-16T04:01:30.767Z,84.80
2023-04-16T04:03:58.026Z,85.10
2023-04-16T04:06:25.319Z,84.80
2023-04-16T04:08:54.604Z,84.50
2023-04-16T04:11:24.676Z,84.80
2023-04-16T04:13:55.712Z,84.70
2023-04-16T04:16:25.822Z,85.00
2023-04-16T04:18:55.670Z,85.10
2023-04-16T04:21:22.935Z,84.70
2023-04-16T04:23:49.901Z,84.70
2023-04-16T04:26:17.141Z,84.80
2023-04-16T04:28:44.169Z,84.80
2023-04-16T04:31:13.878Z,85.10
2023-04-16T04:33:43.559Z,85.20
2023-04-16T04:36:10.638Z,85.20
2023-04-16T04:38:37.851Z,85.00
2023-04-16T04:41:04.920Z,84.20
2023-04-16T04:43:35.903Z,84.00
2023-04-16T04:46:03.026Z,84.00
2023-04-16T04:48:33.896Z,84.00
2023-04-16T04:51:05.280Z,84.30
2023-04-16T04:53:32.696Z,84.50
2023-04-16T04:56:09.147Z,84.20
2023-04-16T04:58:41.743Z,84.00
2023-04-16T05:01:11.282Z,84.30
2023-04-16T05:03:38.434Z,84.00
2023-04-16T05:06:06.816Z,84.40
2023-04-16T05:08:33.734Z,84.40
2023-04-16T05:11:00.916Z,84.50
2023-04-16T05:13:32.527Z,84.40
2023-04-16T05:15:59.965Z,85.00
2023-04-16T05:18:26.875Z,85.00
2023-04-16T05:20:56.313Z,85.00
2023-04-16T05:23:23.265Z,85.20
2023-04-16T05:25:50.316Z,85.00
2023-04-16T05:28:19.388Z,85.20
2023-04-16T05:30:50.894Z,85.20
2023-04-16T05:33:20.948Z,85.40
2023-04-16T05:35:47.864Z,85.50
2023-04-16T05:38:14.807Z,85.70
2023-04-16T05:40:44.157Z,85.80
2023-04-16T05:43:13.341Z,85.70
2023-04-16T05:45:42.884Z,85.70
2023-04-16T05:48:09.832Z,85.60
2023-04-16T05:50:41.504Z,85.30
2023-04-16T05:53:08.988Z,85.50
2023-04-16T05:55:38.141Z,85.10
2023-04-16T05:58:10.569Z,85.00
2023-04-16T06:00:42.386Z,85.30
2023-04-16T06:03:09.442Z,84.60
2023-04-16T06:05:36.583Z,83.40
2023-04-16T06:08:07.984Z,83.20
2023-04-16T06:10:34.917Z,83.60
2023-04-16T06:13:01.888Z,83.60
2023-04-16T06:15:28.994Z,83.10
2023-04-16T06:17:56.287Z,81.80
2023-04-16T06:20:23.225Z,80.90
2023-04-16T06:22:50.293Z,80.90
2023-04-16T06:25:18.216Z,79.90
2023-04-16T06:27:47.553Z,79.80
2023-04-16T06:30:19.925Z,79.50
2023-04-16T06:32:49.347Z,81.00
2023-04-16T06:35:20.230Z,80.20
2023-04-16T06:37:47.400Z,79.40
2023-04-16T06:40:22.041Z,79.20
2023-04-16T06:42:51.230Z,79.60
2023-04-16T06:45:18.565Z,78.20
2023-04-16T06:47:48.222Z,78.60
2023-04-16T06:50:17.478Z,77.80
2023-04-16T06:52:44.374Z,77.90
2023-04-16T06:55:17.902Z,77.20
2023-04-16T06:57:47.857Z,76.20
2023-04-16T07:00:16.994Z,76.20
2023-04-16T07:02:43.992Z,76.40
2023-04-16T07:05:11.029Z,75.40
2023-04-16T07:07:37.950Z,75.90
2023-04-16T07:10:05.919Z,75.70
2023-04-16T07:12:33.172Z,75.70
2023-04-16T07:15:04.730Z,75.20
2023-04-16T07:17:31.654Z,75.50
2023-04-16T07:19:58.618Z,74.90
2023-04-16T07:22:27.985Z,74.20
2023-04-16T07:24:54.898Z,74.30
2023-04-16T07:27:21.961Z,74.60
2023-04-16T07:29:50.419Z,74.40
2023-04-16T07:32:23.592Z,73.00
2023-04-16T07:34:50.678Z,74.50
2023-04-16T07:37:17.576Z,73.90
2023-04-16T07:39:47.349Z,73.60
2023-04-16T07:42:14.388Z,72.70
2023-04-16T07:44:43.945Z,72.70
2023-04-16T07:47:13.095Z,70.00
2023-04-16T07:49:42.487Z,71.00
2023-04-16T07:52:11.468Z,70.70
2023-04-16T07:54:40.613Z,71.70
2023-04-16T07:57:07.518Z,70.10
2023-04-16T07:59:34.465Z,68.50
2023-04-16T08:02:01.679Z,67.00
2023-04-16T08:04:33.599Z,70.30
2023-04-16T08:07:00.695Z,69.00
2023-04-16T08:09:28.732Z,66.70
2023-04-16T08:11:58.299Z,64.50
2023-04-16T08:14:25.258Z,64.60
2023-04-16T08:16:52.275Z,65.00
2023-04-16T08:19:19.237Z,63.70
2023-04-16T08:21:48.728Z,63.20
2023-04-16T08:24:17.980Z,63.60
2023-04-16T08:26:49.952Z,65.20
2023-04-16T08:29:20.854Z,61.50
2023-04-16T08:31:50.024Z,64.10
2023-04-16T08:34:22.437Z,63.60
2023-04-16T08:36:49.401Z,63.30
2023-04-16T08:39:16.289Z,59.90
2023-04-16T08:41:46.668Z,60.10
2023-04-16T08:44:34.468Z,62.20
2023-04-16T08:47:02.449Z,61.80
2023-04-16T08:49:29.579Z,61.90
2023-04-16T08:51:56.812Z,62.00
2023-04-16T08:54:26.738Z,61.80
2023-04-16T08:56:57.855Z,61.80
2023-04-16T08:59:25.659Z,61.10
2023-04-16T09:01:56.300Z,60.00
2023-04-16T09:04:23.904Z,59.20
2023-04-16T09:06:53.026Z,60.10
2023-04-16T09:09:22.664Z,61.40
2023-04-16T09:11:53.250Z,61.80
2023-04-16T09:14:22.759Z,59.10
2023-04-16T09:16:49.948Z,59.90
2023-04-16T09:19:16.893Z,60.00
2023-04-16T09:21:48.081Z,59.70
2023-04-16T09:24:15.529Z,59.80
2023-04-16T09:26:45.707Z,58.00
2023-04-16T09:29:12.601Z,60.00
2023-04-16T09:31:39.624Z,59.30
2023-04-16T09:34:09.831Z,59.50
2023-04-16T09:36:39.277Z,57.40
2023-04-16T09:39:09.656Z,58.70
2023-04-16T09:41:39.526Z,57.60
2023-04-16T09:44:06.562Z,58.30
2023-04-16T09:46:51.819Z,57.60
2023-04-16T09:49:18.912Z,57.90
2023-04-16T09:51:47.990Z,58.20
2023-04-16T09:54:15.624Z,57.20
2023-04-16T09:56:48.684Z,58.00
2023-04-16T09:59:22.508Z,58.20
2023-04-16T10:01:50.171Z,56.90
2023-04-16T10:04:17.479Z,57.30
2023-04-16T10:06:45.888Z,55.70
2023-04-16T10:09:13.002Z,56.70
2023-04-16T10:11:40.020Z,55.60
2023-04-16T10:14:09.187Z,56.10
2023-04-16T10:16:41.168Z,56.10
2023-04-16T10:19:11.181Z,55.40
2023-04-16T10:21:43.013Z,54.50
2023-04-16T10:24:09.959Z,55.20
2023-04-16T10:26:39.324Z,55.50
2023-04-16T10:29:13.698Z,55.60
2023-04-16T10:31:40.660Z,57.00
2023-04-16T10:34:08.869Z,56.70
2023-04-16T10:36:40.042Z,56.70
2023-04-16T10:39:12.103Z,56.20
2023-04-16T10:41:42.849Z,55.90
2023-04-16T10:44:10.328Z,56.10
2023-04-16T10:46:41.593Z,55.30
2023-04-16T10:49:24.600Z,55.40
2023-04-16T10:51:58.260Z,53.50
2023-04-16T10:54:34.270Z,55.70
2023-04-16T10:57:04.815Z,54.10
2023-04-16T10:59:33.677Z,54.70
2023-04-16T11:02:01.963Z,55.00
2023-04-16T11:04:34.677Z,54.60
2023-04-16T11:07:10.762Z,55.10
2023-04-16T11:09:59.436Z,54.20
2023-04-16T11:12:31.688Z,53.80
2023-04-16T11:15:03.322Z,54.00
2023-04-16T11:17:43.756Z,55.00
2023-04-16T11:20:21.047Z,55.80
2023-04-16T11:22:51.944Z,54.00
2023-04-16T11:25:34.187Z,55.70
2023-04-16T11:28:03.725Z,53.60
2023-04-16T11:30:35.473Z,54.00
2023-04-16T11:33:08.718Z,54.40
2023-04-16T11:35:35.698Z,54.40
2023-04-16T11:38:02.646Z,53.00
2023-04-16T11:40:37.710Z,54.30
2023-04-16T11:43:15.098Z,50.40
2023-04-16T11:45:59.483Z,53.00
2023-04-16T11:48:26.669Z,53.80
2023-04-16T11:50:59.489Z,53.50
2023-04-16T11:53:33.891Z,53.40
2023-04-16T11:56:00.893Z,52.70
2023-04-16T11:58:27.793Z,50.30
2023-04-16T12:00:56.937Z,52.10
2023-04-16T12:03:47.007Z,52.10
2023-04-16T12:06:16.443Z,50.70
2023-04-16T12:08:43.447Z,53.20
2023-04-16T12:11:10.457Z,53.00
2023-04-16T12:13:40.333Z,52.20
2023-04-16T12:16:18.036Z,52.50
2023-04-16T12:19:04.153Z,51.80
2023-04-16T12:21:52.041Z,50.50
2023-04-16T12:24:24.093Z,50.10
2023-04-16T12:26:56.852Z,51.50
2023-04-16T12:29:25.481Z,51.70
2023-04-16T12:31:52.812Z,50.20
2023-04-16T12:34:29.111Z,49.40
2023-04-16T12:37:14.915Z,51.40
2023-04-16T12:39:48.066Z,48.90
2023-04-16T12:42:15.104Z,49.50
2023-04-16T12:44:44.289Z,49.80
2023-04-16T12:47:11.390Z,49.20
2023-04-16T12:49:38.438Z,50.50
2023-04-16T12:52:10.231Z,50.70
2023-04-16T12:54:39.568Z,47.90
2023-04-16T12:57:06.513Z,51.40
2023-04-16T12:59:35.687Z,50.30
2023-04-16T13:02:02.924Z,49.90
2023-04-16T13:04:30.028Z,48.90
2023-04-16T13:06:57.071Z,50.10
2023-04-16T13:09:27.073Z,47.90
2023-04-16T13:11:56.471Z,49.10
2023-04-16T13:14:28.055Z,48.30
2023-04-16T13:16:57.204Z,49.20
2023-04-16T13:19:24.139Z,49.80
2023-04-16T13:21:51.077Z,49.40
2023-04-16T13:24:20.214Z,48.30
2023-04-16T13:26:47.138Z,49.30
2023-04-16T13:29:14.074Z,49.00
2023-04-16T13:31:41.261Z,48.50
2023-04-16T13:34:08.247Z,46.20
2023-04-16T13:36:38.183Z,46.20
2023-04-16T13:39:10.775Z,47.80
2023-04-16T13:41:38.342Z,48.70
2023-04-16T13:44:05.697Z,46.40
2023-04-16T13:46:37.009Z,50.40
2023-04-16T13:49:03.982Z,50.10
2023-04-16T13:51:32.981Z,49.80
2023-04-16T13:53:59.913Z,48.00
2023-04-16T13:56:26.851Z,46.90
2023-04-16T13:58:53.778Z,48.40
2023-04-16T14:01:20.774Z,48.50
2023-04-16T14:03:50.017Z,47.30
2023-04-16T14:06:18.213Z,48.60
2023-04-16T14:08:47.603Z,48.60
2023-04-16T14:11:17.062Z,48.00
2023-04-16T14:13:43.989Z,47.10
2023-04-16T14:16:13.956Z,48.30
2023-04-16T14:18:42.499Z,49.60
2023-04-16T14:21:14.224Z,49.10
2023-04-16T14:23:44.245Z,49.40
2023-04-16T14:26:11.209Z,48.50
2023-04-16T14:28:40.956Z,49.00
2023-04-16T14:31:07.889Z,47.90
2023-04-16T14:33:37.316Z,49.60
2023-04-16T14:36:07.454Z,49.80
2023-04-16T14:38:36.864Z,49.10
2023-04-16T14:41:06.078Z,49.70
2023-04-16T14:43:35.846Z,49.70
2023-04-16T14:46:06.565Z,48.30
2023-04-16T14:48:35.913Z,49.10
2023-04-16T14:51:02.826Z,49.50
2023-04-16T14:53:31.989Z,49.30
2023-04-16T14:55:59.114Z,49.60
2023-04-16T14:58:26.495Z,49.40
2023-04-16T15:00:53.542Z,49.40
2023-04-16T15:03:20.781Z,49.90
2023-04-16T15:05:54.793Z,47.80
2023-04-16T15:08:22.817Z,48.90
2023-04-16T15:10:49.996Z,50.50
2023-04-16T15:13:17.015Z,49.70
2023-04-16T15:15:43.914Z,49.70
2023-04-16T15:18:13.213Z,49.40
2023-04-16T15:20:45.746Z,50.00
2023-04-16T15:23:17.323Z,50.70
2023-04-16T15:25:44.271Z,50.80
2023-04-16T15:28:11.216Z,51.20
2023-04-16T15:30:45.994Z,50.70
2023-04-16T15:33:12.967Z,50.60
2023-04-16T15:35:41.296Z,50.20
2023-04-16T15:38:08.561Z,51.20
2023-04-16T15:40:35.633Z,51.10
2023-04-16T15:43:04.798Z,52.10
2023-04-16T15:45:32.385Z,51.40
2023-04-16T15:48:01.918Z,51.60
2023-04-16T15:50:33.697Z,51.60
2023-04-16T15:53:00.638Z,52.30
2023-04-16T15:55:27.626Z,52.10
2023-04-16T15:57:57.027Z,52.00
2023-04-16T16:00:27.487Z,53.00
2023-04-16T16:02:57.190Z,52.70
2023-04-16T16:05:26.340Z,52.40
2023-04-16T16:07:53.279Z,50.70
2023-04-16T16:10:22.892Z,51.80
2023-04-16T16:12:49.818Z,53.60
2023-04-16T16:15:16.795Z,52.70
2023-04-16T16:17:46.483Z,52.50
2023-04-16T16:20:13.599Z,52.80
2023-04-16T16:22:41.848Z,52.10
2023-04-16T16:25:11.048Z,51.60
2023-04-16T16:27:42.726Z,51.50
2023-04-16T16:30:12.710Z,51.00
2023-04-16T16:32:44.101Z,51.80
2023-04-16T16:35:13.354Z,51.60
2023-04-16T16:37:42.626Z,51.10
2023-04-16T16:40:10.063Z,52.10
2023-04-16T16:42:37.050Z,52.30
2023-04-16T16:45:06.952Z,52.10
2023-04-16T16:47:36.419Z,52.50
2023-04-16T16:50:06.365Z,52.60
2023-04-16T16:52:35.754Z,53.00
2023-04-16T16:55:04.807Z,53.40
2023-04-16T16:57:31.727Z,54.30
2023-04-16T17:00:00.906Z,56.40
2023-04-16T17:02:30.405Z,53.50
2023-04-16T17:04:59.048Z,54.00
2023-04-16T17:07:26.382Z,56.30
2023-04-16T17:09:53.286Z,54.70
2023-04-16T17:12:24.856Z,53.80
2023-04-16T17:14:51.852Z,54.00
2023-04-16T17:17:19.046Z,51.40
2023-04-16T17:19:50.801Z,52.60
2023-04-16T17:22:19.872Z,52.50
2023-04-16T17:24:47.260Z,52.00
2023-04-16T17:27:14.302Z,52.70
2023-04-16T17:29:48.532Z,53.70
2023-04-16T17:32:17.770Z,54.30
2023-04-16T17:34:44.838Z,54.20
2023-04-16T17:37:11.797Z,54.70
2023-04-16T17:39:38.692Z,54.80
2023-04-16T17:42:05.737Z,54.80
2023-04-16T17:44:39.504Z,54.80
2023-04-16T17:47:06.476Z,54.50
2023-04-16T17:49:33.356Z,54.80
2023-04-16T17:52:02.434Z,55.40
2023-04-16T17:54:29.399Z,55.30
2023-04-16T17:56:59.037Z,55.10
2023-04-16T17:59:28.968Z,56.00
2023-04-16T18:01:58.312Z,55.80
2023-04-16T18:04:27.740Z,55.60
2023-04-16T18:06:54.858Z,56.40
2023-04-16T18:09:21.863Z,56.80
2023-04-16T18:11:48.874Z,56.50
2023-04-16T18:14:19.949Z,57.90
2023-04-16T18:16:54.309Z,58.50
2023-04-16T18:19:21.373Z,58.30
2023-04-16T18:21:48.320Z,57.20
2023-04-16T18:24:15.947Z,57.80
2023-04-16T18:26:46.103Z,56.80
2023-04-16T18:29:14.169Z,56.20
2023-04-16T18:31:44.180Z,57.80
2023-04-16T18:34:16.323Z,57.00
2023-04-16T18:36:45.772Z,57.20
2023-04-16T18:39:12.686Z,59.20
2023-04-16T18:41:42.645Z,58.00
2023-04-16T18:44:11.007Z,57.60
2023-04-16T18:46:40.692Z,57.60
2023-04-16T18:49:12.636Z,59.60
2023-04-16T18:51:40.091Z,58.00
2023-04-16T18:54:06.978Z,60.70
2023-04-16T18:56:33.918Z,60.90
2023-04-16T18:59:00.815Z,58.80
2023-04-16T19:01:30.013Z,59.00
2023-04-16T19:03:59.399Z,59.80
2023-04-16T19:06:27.563Z,59.50
2023-04-16T19:08:54.564Z,60.70
2023-04-16T19:11:23.931Z,59.70
2023-04-16T19:13:50.916Z,63.50
2023-04-16T19:16:17.845Z,62.50
2023-04-16T19:18:44.793Z,63.50
2023-04-16T19:21:13.916Z,62.30
2023-04-16T19:23:40.995Z,61.00
2023-04-16T19:26:07.971Z,61.30
2023-04-16T19:28:38.824Z,61.40
2023-04-16T19:31:08.617Z,61.40
2023-04-16T19:33:38.022Z,60.70
2023-04-16T19:36:05.072Z,60.40
2023-04-16T19:38:32.001Z,61.30
2023-04-16T19:40:58.932Z,60.70
2023-04-16T19:43:30.826Z,60.70
2023-04-16T19:45:58.202Z,61.10
2023-04-16T19:48:25.411Z,61.10
2023-04-16T19:50:54.814Z,61.70
2023-04-16T19:53:24.969Z,62.20
2023-04-16T19:55:56.393Z,61.30
2023-04-16T19:58:23.419Z,61.60
2023-04-16T20:00:50.510Z,61.80
2023-04-16T20:03:17.601Z,61.90
2023-04-16T20:05:47.456Z,62.20
2023-04-16T20:08:14.394Z,62.30
2023-04-16T20:10:43.575Z,63.20
2023-04-16T20:13:13.770Z,62.70
2023-04-16T20:15:43.051Z,62.90
2023-04-16T20:18:09.992Z,63.70
2023-04-16T20:20:37.970Z,63.30
2023-04-16T20:23:05.253Z,63.40
2023-04-16T20:25:32.286Z,63.40
2023-04-16T20:27:59.219Z,63.70
2023-04-16T20:30:29.536Z,63.90
2023-04-16T20:32:58.978Z,63.90
2023-04-16T20:35:26.153Z,64.30
2023-04-16T20:37:53.080Z,64.00
2023-04-16T20:40:21.248Z,64.00
2023-04-16T20:42:52.261Z,64.30
2023-04-16T20:45:19.272Z,64.10
2023-04-16T20:47:48.732Z,64.40
2023-04-16T20:50:20.639Z,64.20
2023-04-16T20:52:47.576Z,64.40
2023-04-16T20:55:14.711Z,64.70
2023-04-16T20:57:47.875Z,64.80
2023-04-16T21:00:15.751Z,64.80
2023-04-16T21:02:43.622Z,65.10
2023-04-16T21:05:16.297Z,64.70
2023-04-16T21:07:47.961Z,65.00
2023-04-16T21:10:20.299Z,65.10
2023-04-16T21:12:47.425Z,65.10
2023-04-16T21:15:14.428Z,65.40
2023-04-16T21:17:41.395Z,65.30
2023-04-16T21:20:13.523Z,65.30
2023-04-16T21:22:44.786Z,65.50
2023-04-16T21:25:14.332Z,65.60
2023-04-16T21:27:46.133Z,65.70
2023-04-16T21:30:15.862Z,65.90
2023-04-16T21:32:42.881Z,66.30
2023-04-16T21:35:10.260Z,67.00
2023-04-16T21:37:41.877Z,67.00
2023-04-16T21:40:09.444Z,66.40
2023-04-16T21:42:44.452Z,66.40
2023-04-16T21:45:11.507Z,66.50
2023-04-16T21:47:41.488Z,66.50
2023-04-16T21:50:08.856Z,66.50
2023-04-16T21:52:40.878Z,66.70
2023-04-16T21:55:09.441Z,67.40
2023-04-16T21:57:40.966Z,66.90
2023-04-16T22:00:14.498Z,67.20
2023-04-16T22:02:42.523Z,67.00
2023-04-16T22:05:12.230Z,67.30
2023-04-16T22:07:39.180Z,67.40
2023-04-16T22:10:09.158Z,68.10
2023-04-16T22:12:39.925Z,68.90
2023-04-16T22:15:08.172Z,68.00
2023-04-16T22:17:37.287Z,68.40
2023-04-16T22:20:09.425Z,67.40
2023-04-16T22:22:36.479Z,69.00
2023-04-16T22:25:03.463Z,68.30
2023-04-16T22:27:35.549Z,68.70
2023-04-16T22:30:08.453Z,68.40
2023-04-16T22:32:37.592Z,67.90
2023-04-16T22:35:05.262Z,68.50
2023-04-16T22:37:34.705Z,68.80
2023-04-16T22:40:08.227Z,68.70
2023-04-16T22:42:38.021Z,68.90
2023-04-16T22:45:08.479Z,69.30
2023-04-16T22:47:35.505Z,68.40
2023-04-16T22:50:03.367Z,70.00
2023-04-16T22:52:32.781Z,70.20
2023-04-16T22:54:59.761Z,69.40
2023-04-16T22:57:26.693Z,71.10
2023-04-16T22:59:56.313Z,70.70
2023-04-16T23:02:25.621Z,71.20
2023-04-16T23:04:52.566Z,71.70
2023-04-16T23:07:19.537Z,71.30
2023-04-16T23:09:48.975Z,72.10
2023-04-16T23:12:18.141Z,72.10
2023-04-16T23:14:46.069Z,72.30
2023-04-16T23:17:15.372Z,73.30
2023-04-16T23:19:45.271Z,73.10
2023-04-16T23:22:12.320Z,71.90
2023-04-16T23:24:43.668Z,73.20
2023-04-16T23:27:10.752Z,72.90
2023-04-16T23:29:37.640Z,73.50
2023-04-16T23:32:04.764Z,73.90
2023-04-16T23:34:34.115Z,73.00
2023-04-16T23:37:01.040Z,74.00
2023-04-16T23:39:27.980Z,74.00
2023-04-16T23:41:54.900Z,73.50
2023-04-16T23:44:21.858Z,73.80
2023-04-16T23:46:51.047Z,72.00
2023-04-16T23:49:17.977Z,72.00
2023-04-16T23:51:44.980Z,72.50
2023-04-16T23:54:11.917Z,72.70
2023-04-16T23:56:43.473Z,74.30
2023-04-16T23:59:13.056Z,72.40
